Ybor City, FL

7:26 PM EDT on July 25, 2016 (GMT -0400)
Radio Station W9DKC | | Change Station

Elev 34 ft 27.98 °N, 82.41 °W | Updated 1 minute ago

Scattered Clouds
Scattered Clouds
86.2 °F
Feels Like 91 °F
N
1.2
Wind Variable Wind from WSW
Gusts 4.0 mph

Today
High -- | Low -- °F
--% Chance of Precip.
Yesterday
High -- | Low -- °F
Precip. -- in
Pressure 30.03 in
Visibility 10.0 miles
Clouds Scattered Clouds 8000 ft
Heat Index 91 °F
Dew Point 71 °F
Humidity 60%
Rainfall 0.00 in
Snow Depth Not available.
6:48 AM 8:23 PM
Waning Gibbous, 61% visible
METAR KTPF 252315Z AUTO 24004KT 10SM SCT080 31/25 A3003 RMK AO2
Pressure 30.03 in
Visibility 10.0 miles
Clouds Scattered Clouds 8000 ft
Heat Index 91 °F
Dew Point 71 °F
Humidity 60%
Rainfall 0.00 in
Snow Depth Not available.
6:48 AM 8:23 PM
Waning Gibbous, 61% visible
METAR KTPF 252315Z AUTO 24004KT 10SM SCT080 31/25 A3003 RMK AO2
Record highs are possible for parts of the Northeast Monday and Tuesday, as parts of the central U.S. take a little breather from the worst of summer's dog day heat.

Expansive high pressure in the upper atmosphere will focus on parts of the East and West this week, sending heat indices well into the triple digits from the Mid-Atlantic states into the South.

10-Day Weather Forecast

Almanac

Astronomy

Jul. 25, 2016 Rise Set
Actual Time
Civil Twilight
Nautical Twilight
Astronomical Twilight
Moon
Length of Visible Light
Length of Day
Tomorrow will be .
, % of the Moon is Illuminated

Today's Extremes

State Highs State Lows

Community

WunderPhotos

Upload Photos

1,927,444 photos uploaded!

WunderBlog® & News

Nearby

Air Quality

  Air Quality AQ Index Pollutant
Not available.

Snow Depth

Station Depth Elevation

Earthquake Activity

City Distance Mag. Time & Date
Minimum magnitude displayed is 2.5.

Coastal Water Temperatures

Place Temperature

Stations

Nearby Weather Stations

Station Location Temp. Windchill Dew Point Humidity Wind Precip. Elev Updated Type
                   

Watches & Warnings

There are currently no watches in effect.